Terminal Aerodrome Forecast
Issued by NWS Blacksburg, VA

Home | Current Version | Previous Version | Text Only | Print | Product List | Glossary On
Versions: 1 2 3 4 5 6 7 8 9 10 11 12 13 14 15 16 17 18 19 20 21 22
000
FTUS41 KRNK 011140
TAFDAN
TAF
KDAN 011140Z 0112/0212 21003KT P6SM OVC100
     FM011600 22007KT P6SM BKN120 OVC200
     FM012100 20008KT P6SM BKN040
     FM020400 19007KT P6SM -RA OVC030
     FM020700 20008KT 3SM -RA BR SCT007 OVC015
     FM021100 21008KT 1 1/2SM RA BR OVC004=

USA.gov is the U.S. government's official web portal to all federal, state and local government web resources and services.